Aviation Digital Data Service (ADDS)

Output produced by METARs form (1935 UTC 25 March 2017)
found at http://www.aviationweather.gov/adds/metars/
 
LKCV 251900Z 26004KT CAVOK 07/M00 Q1022 NOSIG RMK BLU+ BLU
TAF LKCV 251700Z 2518/2618 32006KT CAVOK 
     BECMG 2600/2602 VRB02KT 
     BECMG 2608/2610 03008KT
       
LKCV 251900Z 26004KT CAVOK 07/M00 Q1022 NOSIG RMK BLU+ BLU
TAF LKCV 251700Z 2518/2618 32006KT CAVOK 
     BECMG 2600/2602 VRB02KT 
     BECMG 2608/2610 03008KT
       
LKKB 251900Z 34004KT 300V010 CAVOK 08/M02 Q1023 NOSIG
TAF LKKB 251700Z 2518/2618 35006KT CAVOK 
     BECMG 2606/2608 08008KT
       
LKKV 251900Z 33004KT 290V020 CAVOK 06/M03 Q1023
TAF LKKV 251700Z 2518/2700 05005KT CAVOK 
     BECMG 2518/2520 VRB02KT 
     BECMG 2606/2609 08010KT 
     BECMG 2617/2619 VRB02KT
       
LKLN 251900Z AUTO 34003KT 300V010 CAVOK 07/M02 Q1023
LKMT 251930Z 01004KT CAVOK 08/M01 Q1021 NOSIG
TAF LKMT 251700Z 2518/2700 01004KT CAVOK 
     BECMG 2600/2602 04012KT 
     TEMPO 2602/2617 06014G26KT 
     TEMPO 2600/2612 9999 BKN030 
     BECMG 2618/2621 VRB02KT
       
LKNA 251900Z 32009KT CAVOK 06/M01 Q1021 NOSIG RMK BLU BLU
TAF LKNA 251700Z 2518/2618 33008KT CAVOK 
     BECMG 2605/2608 03010KT
       
LKPD 251900Z 32003KT 300V360 CAVOK 09/M02 Q1022 NOSIG RMK BLU BLU
TAF LKPD 251700Z 2518/2618 30005KT CAVOK 
     BECMG 2608/2610 06008KT
       
LKPR 251930Z 31003KT 280V340 CAVOK 06/M03 Q1023 NOSIG
TAF LKPR 251700Z 2518/2700 35008KT CAVOK 
     BECMG 2605/2608 08012KT 
     BECMG 2618/2621 VRB02KT
       
LKTB 251930Z 33004KT CAVOK 08/M02 Q1021 NOSIG
TAF LKTB 251700Z 2518/2700 35008KT CAVOK 
     BECMG 2605/2607 05008KT 
     TEMPO 2610/2616 08012G24KT 
     BECMG 2619/2621 VRB02KT
       
LKKV 251900Z 33004KT 290V020 CAVOK 06/M03 Q1023
TAF LKKV 251700Z 2518/2700 05005KT CAVOK 
     BECMG 2518/2520 VRB02KT 
     BECMG 2606/2609 08010KT 
     BECMG 2617/2619 VRB02KT
       
LKKB 251900Z 34004KT 300V010 CAVOK 08/M02 Q1023 NOSIG
TAF LKKB 251700Z 2518/2618 35006KT CAVOK 
     BECMG 2606/2608 08008KT
       
LKLN 251900Z AUTO 34003KT 300V010 CAVOK 07/M02 Q1023
LKMT 251930Z 01004KT CAVOK 08/M01 Q1021 NOSIG
TAF LKMT 251700Z 2518/2700 01004KT CAVOK 
     BECMG 2600/2602 04012KT 
     TEMPO 2602/2617 06014G26KT 
     TEMPO 2600/2612 9999 BKN030 
     BECMG 2618/2621 VRB02KT
       
LKNA 251900Z 32009KT CAVOK 06/M01 Q1021 NOSIG RMK BLU BLU
TAF LKNA 251700Z 2518/2618 33008KT CAVOK 
     BECMG 2605/2608 03010KT
       
LKPD 251900Z 32003KT 300V360 CAVOK 09/M02 Q1022 NOSIG RMK BLU BLU
TAF LKPD 251700Z 2518/2618 30005KT CAVOK 
     BECMG 2608/2610 06008KT
       
LKPR 251930Z 31003KT 280V340 CAVOK 06/M03 Q1023 NOSIG
TAF LKPR 251700Z 2518/2700 35008KT CAVOK 
     BECMG 2605/2608 08012KT 
     BECMG 2618/2621 VRB02KT
       
LKTB 251930Z 33004KT CAVOK 08/M02 Q1021 NOSIG
TAF LKTB 251700Z 2518/2700 35008KT CAVOK 
     BECMG 2605/2607 05008KT 
     TEMPO 2610/2616 08012G24KT 
     BECMG 2619/2621 VRB02KT